createdAt,value
2023-03-29T00:00:44.685Z,99314.25
2023-03-29T00:03:14.028Z,99307.75
2023-03-29T00:05:42.095Z,99307.50
2023-03-29T00:08:14.413Z,99316.19
2023-03-29T00:10:42.454Z,99309.63
2023-03-29T00:13:10.440Z,99312.34
2023-03-29T00:15:38.424Z,99309.09
2023-03-29T00:18:06.646Z,99309.34
2023-03-29T00:20:34.583Z,99300.94
2023-03-29T00:23:02.440Z,99307.75
2023-03-29T00:25:30.403Z,99308.00
2023-03-29T00:27:58.392Z,99300.44
2023-03-29T00:30:26.741Z,99306.13
2023-03-29T00:32:54.583Z,99300.44
2023-03-29T00:35:22.490Z,99314.53
2023-03-29T00:37:51.046Z,99315.88
2023-03-29T00:40:19.299Z,99317.75
2023-03-29T00:42:47.169Z,99315.31
2023-03-29T00:45:25.544Z,99319.69
2023-03-29T00:48:01.041Z,99317.50
2023-03-29T00:50:33.595Z,99319.91
2023-03-29T00:53:02.571Z,99317.47
2023-03-29T00:56:01.677Z,99315.88
2023-03-29T00:58:51.923Z,99316.16
2023-03-29T01:01:28.439Z,99313.94
2023-03-29T01:04:20.412Z,99310.16
2023-03-29T01:07:23.161Z,99308.25
2023-03-29T01:09:56.135Z,99295.25
2023-03-29T01:12:32.802Z,99299.03
2023-03-29T01:15:10.166Z,99301.75
2023-03-29T01:17:40.639Z,99290.09
2023-03-29T01:20:15.584Z,99284.66
2023-03-29T01:22:43.946Z,99284.66
2023-03-29T01:25:35.763Z,99281.94
2023-03-29T01:28:12.637Z,99288.47
2023-03-29T01:30:42.344Z,99294.72
2023-03-29T01:33:23.618Z,99287.16
2023-03-29T01:36:01.974Z,99290.94
2023-03-29T01:38:48.914Z,99302.59
2023-03-29T01:41:17.254Z,99295.25
2023-03-29T01:43:50.671Z,99278.47
2023-03-29T01:46:45.718Z,99275.75
2023-03-29T01:49:23.330Z,99276.53
2023-03-29T01:52:00.778Z,99281.97
2023-03-29T01:54:44.513Z,99287.34
2023-03-29T01:57:14.472Z,99274.03
2023-03-29T01:59:44.774Z,99276.53
2023-03-29T02:02:16.099Z,99272.44
2023-03-29T02:04:50.165Z,99278.94
2023-03-29T02:07:24.135Z,99277.31
2023-03-29T02:09:53.715Z,99276.56
2023-03-29T02:12:22.263Z,99288.72
2023-03-29T02:14:50.905Z,99315.25
2023-03-29T02:17:25.419Z,99292.03
2023-03-29T02:20:32.721Z,99289.81
2023-03-29T02:23:08.438Z,99306.53
2023-03-29T02:25:37.990Z,99290.28
2023-03-29T02:28:07.052Z,99300.09
2023-03-29T02:31:04.452Z,99311.72
2023-03-29T02:33:45.448Z,99313.09
2023-03-29T02:36:22.511Z,99300.38
2023-03-29T02:38:52.921Z,99294.41
2023-03-29T02:41:23.645Z,99295.47
2023-03-29T02:43:53.459Z,99329.66
2023-03-29T02:46:22.088Z,99318.50
2023-03-29T02:48:52.996Z,99294.94
2023-03-29T02:51:24.734Z,99310.97
2023-03-29T02:54:21.085Z,99307.97
2023-03-29T02:56:56.020Z,99309.66
2023-03-29T02:59:24.318Z,99312.03
2023-03-29T03:01:52.919Z,99306.38
2023-03-29T03:04:21.748Z,99309.63
2023-03-29T03:06:50.101Z,99316.66
2023-03-29T03:09:18.221Z,99299.28
2023-03-29T03:11:48.002Z,99286.56
2023-03-29T03:14:16.780Z,99298.50
2023-03-29T03:16:44.875Z,99289.53
2023-03-29T03:19:13.342Z,99279.03
2023-03-29T03:21:41.193Z,99275.47
2023-03-29T03:24:09.044Z,99260.59
2023-03-29T03:26:38.251Z,99252.16
2023-03-29T03:29:07.016Z,99260.88
2023-03-29T03:31:54.248Z,99273.84
2023-03-29T03:34:41.000Z,99268.97
2023-03-29T03:37:12.032Z,99261.69
2023-03-29T03:39:40.493Z,99262.22
2023-03-29T03:42:10.478Z,99264.38
2023-03-29T03:44:44.873Z,99233.50
2023-03-29T03:47:32.989Z,99251.38
2023-03-29T03:50:14.249Z,99254.34
2023-03-29T03:52:42.121Z,99248.66
2023-03-29T03:55:11.937Z,99242.69
2023-03-29T03:57:47.984Z,99248.13
2023-03-29T04:00:22.836Z,99254.63
2023-03-29T04:03:06.150Z,99262.50
2023-03-29T04:05:42.780Z,99259.78
2023-03-29T04:08:12.595Z,99262.22
2023-03-29T04:11:00.146Z,99253.00
2023-03-29T04:13:35.807Z,99262.75
2023-03-29T04:16:24.464Z,99249.47
2023-03-29T04:18:53.443Z,99258.13
2023-03-29T04:21:23.562Z,99253.00
2023-03-29T04:23:51.432Z,99258.16
2023-03-29T04:26:19.349Z,99258.69
2023-03-29T04:28:50.870Z,99261.41
2023-03-29T04:31:28.812Z,99266.56
2023-03-29T04:34:35.061Z,99264.41
2023-03-29T04:37:10.675Z,99262.50
2023-03-29T04:39:39.492Z,99265.22
2023-03-29T04:42:08.860Z,99253.59
2023-03-29T04:44:36.964Z,99265.50
2023-03-29T04:47:08.075Z,99263.31
2023-03-29T04:49:47.652Z,99272.00
2023-03-29T04:52:24.595Z,99264.97
2023-03-29T04:54:53.355Z,99264.97
2023-03-29T04:57:39.904Z,99263.31
2023-03-29T05:00:27.130Z,99254.66
2023-03-29T05:03:18.688Z,99258.75
2023-03-29T05:06:07.321Z,99256.81
2023-03-29T05:08:39.643Z,99260.34
2023-03-29T05:11:25.190Z,99258.44
2023-03-29T05:13:57.016Z,99246.25
2023-03-29T05:16:30.137Z,99252.50
2023-03-29T05:18:59.228Z,99251.13
2023-03-29T05:21:28.452Z,99237.56
2023-03-29T05:23:59.065Z,99242.16
2023-03-29T05:27:05.876Z,99225.09
2023-03-29T05:29:36.807Z,99226.44
2023-03-29T05:32:28.641Z,99219.94
2023-03-29T05:34:56.984Z,99222.66
2023-03-29T05:37:24.922Z,99225.91
2023-03-29T05:40:06.092Z,99226.44
2023-03-29T05:42:38.650Z,99217.47
2023-03-29T05:45:10.635Z,99225.38
2023-03-29T05:47:39.924Z,99218.59
2023-03-29T05:50:09.736Z,99211.25
2023-03-29T05:52:38.631Z,99213.44
2023-03-29T05:55:08.081Z,99218.84
2023-03-29T05:57:37.600Z,99215.59
2023-03-29T06:00:25.835Z,99221.53
2023-03-29T06:03:17.651Z,99224.56
2023-03-29T06:05:56.294Z,99227.00
2023-03-29T06:08:26.149Z,99223.19
2023-03-29T06:11:08.936Z,99234.31
2023-03-29T06:13:57.564Z,99229.97
2023-03-29T06:16:26.175Z,99235.94
2023-03-29T06:18:54.187Z,99236.75
2023-03-29T06:21:22.912Z,99240.56
2023-03-29T06:23:51.041Z,99241.91
2023-03-29T06:26:20.118Z,99236.22
2023-03-29T06:28:51.294Z,99242.72
2023-03-29T06:31:21.157Z,99236.50
2023-03-29T06:33:51.865Z,99235.38
2023-03-29T06:36:34.138Z,99240.00
2023-03-29T06:39:08.532Z,99239.47
2023-03-29T06:41:57.906Z,99230.25
2023-03-29T06:44:50.080Z,99233.22
2023-03-29T06:47:24.251Z,99229.41
2023-03-29T06:49:52.297Z,99235.38
2023-03-29T06:52:30.605Z,99228.31
2023-03-29T06:54:58.606Z,99232.13
2023-03-29T06:57:27.565Z,99234.31
2023-03-29T06:59:55.764Z,99224.25
2023-03-29T07:02:27.668Z,99232.16
2023-03-29T07:04:59.405Z,99249.22
2023-03-29T07:07:53.552Z,99239.47
2023-03-29T07:10:38.290Z,99235.13
2023-03-29T07:13:26.343Z,99237.00
2023-03-29T07:15:55.147Z,99238.91
2023-03-29T07:18:33.281Z,99228.09
2023-03-29T07:21:01.451Z,99232.41
2023-03-29T07:23:29.690Z,99244.09
2023-03-29T07:25:58.044Z,99240.00
2023-03-29T07:28:27.273Z,99247.34
2023-03-29T07:31:11.131Z,99235.38
2023-03-29T07:33:46.426Z,99245.97
2023-03-29T07:36:15.773Z,99248.97
2023-03-29T07:38:44.126Z,99234.88
2023-03-29T07:41:17.484Z,99241.63
2023-03-29T07:43:47.984Z,99242.19
2023-03-29T07:46:19.678Z,99246.22
2023-03-29T07:48:47.985Z,99243.81
2023-03-29T07:51:16.890Z,99230.22
2023-03-29T07:53:46.610Z,99241.34
2023-03-29T07:56:44.166Z,99240.81
2023-03-29T07:59:30.418Z,99229.41
2023-03-29T08:02:11.306Z,99227.50
2023-03-29T08:04:42.589Z,99236.22
2023-03-29T08:07:31.337Z,99220.72
2023-03-29T08:10:22.076Z,99224.50
2023-03-29T08:13:01.002Z,99228.56
2023-03-29T08:15:39.144Z,99230.47
2023-03-29T08:18:11.260Z,99231.84
2023-03-29T08:20:39.368Z,99233.16
2023-03-29T08:23:07.254Z,99230.19
2023-03-29T08:25:53.623Z,99228.53
2023-03-29T08:28:21.481Z,99236.13
2023-03-29T08:30:52.856Z,99225.28
2023-03-29T08:33:21.030Z,99222.22
2023-03-29T08:35:57.782Z,99216.47
2023-03-29T08:38:30.488Z,99217.84
2023-03-29T08:40:58.785Z,99220.03
2023-03-29T08:44:00.699Z,99219.69
2023-03-29T08:46:51.232Z,99216.69
2023-03-29T08:49:31.826Z,99218.88
2023-03-29T08:52:06.861Z,99233.06
2023-03-29T08:54:46.180Z,99224.63
2023-03-29T08:57:30.443Z,99218.38
2023-03-29T09:00:07.753Z,99219.16
2023-03-29T09:02:42.238Z,99217.19
2023-03-29T09:05:35.687Z,99216.38
2023-03-29T09:08:38.631Z,99200.88
2023-03-29T09:11:25.324Z,99202.69
2023-03-29T09:13:59.901Z,99198.06
2023-03-29T09:16:31.256Z,99206.75
2023-03-29T09:19:33.217Z,99196.59
2023-03-29T09:22:24.406Z,99210.69
2023-03-29T09:25:07.417Z,99205.22
2023-03-29T09:27:50.072Z,99208.69
2023-03-29T09:31:03.644Z,99207.31
2023-03-29T09:33:42.985Z,99204.25
2023-03-29T09:36:32.731Z,99203.66
2023-03-29T09:39:01.895Z,99200.16
2023-03-29T09:41:49.448Z,99210.13
2023-03-29T09:44:30.281Z,99203.94
2023-03-29T09:47:20.686Z,99198.09
2023-03-29T09:49:57.899Z,99193.25
2023-03-29T09:52:26.295Z,99194.13
2023-03-29T09:55:06.737Z,99187.13
2023-03-29T09:58:01.636Z,99197.53
2023-03-29T10:00:34.281Z,99193.72
2023-03-29T10:03:02.490Z,99197.69
2023-03-29T10:05:41.419Z,99185.84
2023-03-29T10:08:23.966Z,99184.47
2023-03-29T10:10:52.358Z,99183.41
2023-03-29T10:13:27.757Z,99177.19
2023-03-29T10:16:02.597Z,99171.38
2023-03-29T10:18:32.177Z,99174.97
2023-03-29T10:21:03.638Z,99170.97
2023-03-29T10:23:37.354Z,99183.53
2023-03-29T10:26:11.652Z,99173.31
2023-03-29T10:28:40.720Z,99173.66
2023-03-29T10:31:19.132Z,99174.03
2023-03-29T10:33:53.156Z,99155.69
2023-03-29T10:36:22.758Z,99165.44
2023-03-29T10:38:54.208Z,99156.38
2023-03-29T10:41:23.239Z,99152.25
2023-03-29T10:43:51.926Z,99146.44
2023-03-29T10:46:29.392Z,99144.84
2023-03-29T10:49:10.299Z,99131.94
2023-03-29T10:51:38.282Z,99126.53
2023-03-29T10:54:13.539Z,99122.50
2023-03-29T10:56:51.970Z,99136.91
2023-03-29T10:59:27.429Z,99130.25
2023-03-29T11:02:13.607Z,99132.97
2023-03-29T11:04:44.828Z,99133.03
2023-03-29T11:07:22.757Z,99122.94
2023-03-29T11:10:02.126Z,99120.66
2023-03-29T11:12:41.992Z,99114.19
2023-03-29T11:15:39.170Z,99115.00
2023-03-29T11:18:34.835Z,99114.84
2023-03-29T11:21:08.592Z,99117.72
2023-03-29T11:23:53.875Z,99113.13
2023-03-29T11:26:36.767Z,99110.25
2023-03-29T11:29:22.861Z,99105.91
2023-03-29T11:32:16.944Z,99099.41
2023-03-29T11:35:03.240Z,99104.22
2023-03-29T11:37:34.013Z,99102.16
2023-03-29T11:40:37.243Z,99095.03
2023-03-29T11:43:31.207Z,99093.38
2023-03-29T11:46:02.945Z,99094.38
2023-03-29T11:48:55.573Z,99088.50
2023-03-29T11:51:28.286Z,99093.94
2023-03-29T11:54:10.132Z,99084.44
2023-03-29T11:56:45.394Z,99068.50
2023-03-29T11:59:23.750Z,99069.59
2023-03-29T12:02:25.780Z,99054.97
2023-03-29T12:04:56.917Z,99067.09
2023-03-29T12:07:54.597Z,99072.56
2023-03-29T12:10:33.730Z,99066.19
2023-03-29T12:13:07.121Z,99060.31
2023-03-29T12:15:52.678Z,99064.53
2023-03-29T12:18:26.995Z,99069.03
2023-03-29T12:21:05.015Z,99044.09
2023-03-29T12:23:35.551Z,99049.66
2023-03-29T12:26:17.450Z,99055.56
2023-03-29T12:29:08.289Z,99061.13
2023-03-29T12:31:58.694Z,99054.16
2023-03-29T12:35:00.041Z,99045.97
2023-03-29T12:38:29.336Z,99040.03
2023-03-29T12:41:38.356Z,99035.00
2023-03-29T12:44:25.207Z,99022.03
2023-03-29T12:46:58.752Z,99014.44
2023-03-29T12:49:31.951Z,99011.88
2023-03-29T12:52:03.399Z,99015.31
2023-03-29T12:54:33.048Z,99024.63
2023-03-29T12:57:27.695Z,99014.00
2023-03-29T12:59:56.435Z,99007.47
2023-03-29T13:02:35.352Z,99004.25
2023-03-29T13:05:05.634Z,98997.53
2023-03-29T13:07:47.264Z,99011.66
2023-03-29T13:10:35.689Z,98993.75
2023-03-29T13:13:18.814Z,98999.78
2023-03-29T13:15:47.807Z,98996.72
2023-03-29T13:19:03.743Z,98990.50
2023-03-29T13:21:46.398Z,98982.03
2023-03-29T13:24:36.951Z,98995.03
2023-03-29T13:27:42.331Z,98968.84
2023-03-29T13:30:55.282Z,98974.44
2023-03-29T13:33:42.760Z,98975.59
2023-03-29T13:36:22.759Z,98971.97
2023-03-29T13:38:53.988Z,98965.41
2023-03-29T13:41:43.706Z,98960.81
2023-03-29T13:44:45.534Z,98971.09
2023-03-29T13:47:19.371Z,98965.59
2023-03-29T13:50:04.169Z,98953.22
2023-03-29T13:53:03.987Z,98956.94
2023-03-29T13:55:38.466Z,98956.47
2023-03-29T13:58:13.849Z,98958.63
2023-03-29T14:00:48.364Z,98948.38
2023-03-29T14:03:19.262Z,98941.72
2023-03-29T14:06:01.951Z,98946.94
2023-03-29T14:08:37.899Z,98935.81
2023-03-29T14:11:08.508Z,98941.91
2023-03-29T14:13:37.097Z,98939.03
2023-03-29T14:16:09.277Z,98952.16
2023-03-29T14:18:40.753Z,98929.47
2023-03-29T14:21:12.136Z,98943.84
2023-03-29T14:23:45.054Z,98933.19
2023-03-29T14:26:18.982Z,98927.66
2023-03-29T14:28:50.817Z,98926.44
2023-03-29T14:31:19.232Z,98924.66
2023-03-29T14:33:54.298Z,98926.13
2023-03-29T14:36:23.551Z,98919.22
2023-03-29T14:38:57.889Z,98911.56
2023-03-29T14:41:31.147Z,98904.50
2023-03-29T14:44:00.506Z,98909.00
2023-03-29T14:46:29.109Z,98902.66
2023-03-29T14:48:57.768Z,98914.69
2023-03-29T14:51:30.228Z,98906.97
2023-03-29T14:54:01.030Z,98902.31
2023-03-29T14:56:32.804Z,98887.31
2023-03-29T14:59:03.996Z,98889.03
2023-03-29T15:01:32.409Z,98896.91
2023-03-29T15:04:09.145Z,98886.78
2023-03-29T15:06:42.544Z,98890.84
2023-03-29T15:09:20.671Z,98891.03
2023-03-29T15:11:56.519Z,98899.69
2023-03-29T15:14:28.602Z,98893.72
2023-03-29T15:17:06.264Z,98877.19
2023-03-29T15:19:34.404Z,98883.25
2023-03-29T15:22:11.281Z,98880.13
2023-03-29T15:24:45.080Z,98878.84
2023-03-29T15:27:18.741Z,98875.84
2023-03-29T15:29:47.400Z,98877.72
2023-03-29T15:32:33.844Z,98870.81
2023-03-29T15:35:05.073Z,98874.22
2023-03-29T15:37:33.017Z,98867.28
2023-03-29T15:40:05.684Z,98869.97
2023-03-29T15:42:34.651Z,98864.38
2023-03-29T15:45:07.458Z,98867.22
2023-03-29T15:47:35.610Z,98865.44
2023-03-29T15:50:04.011Z,98869.94
2023-03-29T15:52:31.867Z,98862.56
2023-03-29T15:54:59.756Z,98877.19
2023-03-29T15:57:27.755Z,98862.69
2023-03-29T15:59:55.941Z,98863.66
2023-03-29T16:02:25.003Z,98861.06
2023-03-29T16:04:53.479Z,98869.72
2023-03-29T16:07:21.341Z,98875.56
2023-03-29T16:09:49.234Z,98875.69
2023-03-29T16:12:17.131Z,98872.09
2023-03-29T16:14:45.082Z,98873.59
2023-03-29T16:17:14.169Z,98871.03
2023-03-29T16:19:42.116Z,98867.63
2023-03-29T16:22:10.287Z,98861.59
2023-03-29T16:24:38.496Z,98858.75
2023-03-29T16:27:06.604Z,98856.34
2023-03-29T16:29:34.570Z,98856.47
2023-03-29T16:32:04.598Z,98856.72
2023-03-29T16:34:35.964Z,98863.97
2023-03-29T16:37:03.974Z,98857.75
2023-03-29T16:39:31.859Z,98850.38
2023-03-29T16:41:59.734Z,98850.63
2023-03-29T16:44:27.984Z,98848.22
2023-03-29T16:46:58.144Z,98848.38
2023-03-29T16:49:26.123Z,98865.59
2023-03-29T16:51:53.999Z,98862.38
2023-03-29T16:54:21.879Z,98859.81
2023-03-29T16:56:50.695Z,98858.22
2023-03-29T16:59:18.636Z,98865.09
2023-03-29T17:01:46.979Z,98867.03
2023-03-29T17:04:14.932Z,98862.69
2023-03-29T17:06:43.119Z,98865.44
2023-03-29T17:09:11.029Z,98852.69
2023-03-29T17:11:39.681Z,98852.69
2023-03-29T17:14:08.995Z,98864.13
2023-03-29T17:16:37.029Z,98856.53
2023-03-29T17:19:04.866Z,98853.31
2023-03-29T17:21:33.163Z,98848.44
2023-03-29T17:24:01.608Z,98856.66
2023-03-29T17:26:29.802Z,98843.31
2023-03-29T17:28:58.320Z,98856.16
2023-03-29T17:31:26.910Z,98864.06
2023-03-29T17:33:55.483Z,98866.91
2023-03-29T17:36:25.293Z,98871.25
2023-03-29T17:38:54.940Z,98864.78
2023-03-29T17:41:23.278Z,98860.59
2023-03-29T17:43:52.278Z,98870.19
2023-03-29T17:46:23.213Z,98876.28
2023-03-29T17:48:52.169Z,98889.16
2023-03-29T17:51:21.341Z,98881.75
2023-03-29T17:53:50.077Z,98887.34
2023-03-29T17:56:22.947Z,98870.44
2023-03-29T17:58:51.434Z,98887.84
2023-03-29T18:01:21.192Z,98891.19
2023-03-29T18:03:49.504Z,98894.53
2023-03-29T18:06:20.528Z,98883.59
2023-03-29T18:08:49.071Z,98893.41
2023-03-29T18:11:22.790Z,98879.75
2023-03-29T18:13:52.883Z,98893.53
2023-03-29T18:16:22.032Z,98892.53
2023-03-29T18:18:50.905Z,98897.50
2023-03-29T18:21:18.900Z,98902.22
2023-03-29T18:23:48.274Z,98903.97
2023-03-29T18:26:16.920Z,98896.38
2023-03-29T18:28:48.832Z,98910.84
2023-03-29T18:31:16.832Z,98916.31
2023-03-29T18:33:44.765Z,98913.25
2023-03-29T18:36:13.638Z,98912.75
2023-03-29T18:38:43.827Z,98910.34
2023-03-29T18:41:13.597Z,98924.13
2023-03-29T18:43:43.066Z,98929.28
2023-03-29T18:46:11.227Z,98933.34
2023-03-29T18:48:39.195Z,98929.16
2023-03-29T18:51:11.165Z,98924.81
2023-03-29T18:53:41.609Z,98919.16
2023-03-29T18:56:09.846Z,98909.34
2023-03-29T18:58:37.730Z,98920.06
2023-03-29T19:01:06.886Z,98916.72
2023-03-29T19:03:35.129Z,98919.47
2023-03-29T19:06:04.001Z,98926.16
2023-03-29T19:08:32.967Z,98913.09
2023-03-29T19:11:02.792Z,98902.41
2023-03-29T19:13:30.905Z,98898.75
2023-03-29T19:15:58.868Z,98909.78
2023-03-29T19:18:27.517Z,98909.06
2023-03-29T19:20:55.554Z,98917.66
2023-03-29T19:23:28.161Z,98914.81
2023-03-29T19:25:58.384Z,98914.41
2023-03-29T19:28:27.484Z,98912.28
2023-03-29T19:30:56.812Z,98906.84
2023-03-29T19:33:24.710Z,98897.25
2023-03-29T19:35:52.836Z,98902.91
2023-03-29T19:38:21.037Z,98895.81
2023-03-29T19:40:50.579Z,98879.94
2023-03-29T19:43:20.693Z,98891.19
2023-03-29T19:45:50.529Z,98892.69
2023-03-29T19:48:23.465Z,98892.19
2023-03-29T19:50:52.272Z,98880.19
2023-03-29T19:53:21.269Z,98875.28
2023-03-29T19:55:49.515Z,98877.03
2023-03-29T19:58:17.467Z,98876.81
2023-03-29T20:00:45.450Z,98875.81
2023-03-29T20:03:14.095Z,98883.72
2023-03-29T20:05:42.440Z,98867.94
2023-03-29T20:08:10.416Z,98872.00
2023-03-29T20:10:38.493Z,98882.91
2023-03-29T20:13:06.750Z,98862.59
2023-03-29T20:15:35.348Z,98856.22
2023-03-29T20:18:03.748Z,98855.22
2023-03-29T20:20:31.926Z,98855.31
2023-03-29T20:23:05.296Z,98853.59
2023-03-29T20:25:35.669Z,98854.41
2023-03-29T20:28:04.847Z,98858.88
2023-03-29T20:30:32.901Z,98849.03
2023-03-29T20:33:01.079Z,98863.19
2023-03-29T20:35:29.102Z,98863.19
2023-03-29T20:37:57.030Z,98859.69
2023-03-29T20:40:24.983Z,98842.78
2023-03-29T20:42:54.298Z,98856.44
2023-03-29T20:45:22.275Z,98837.03
2023-03-29T20:47:57.670Z,98840.25
2023-03-29T20:50:30.215Z,98847.63
2023-03-29T20:53:03.665Z,98842.06
2023-03-29T20:55:33.517Z,98845.41
2023-03-29T20:58:02.350Z,98851.56
2023-03-29T21:00:32.546Z,98842.13
2023-03-29T21:03:00.662Z,98839.84
2023-03-29T21:05:32.232Z,98837.41
2023-03-29T21:08:01.019Z,98831.97
2023-03-29T21:10:29.636Z,98827.91
2023-03-29T21:13:00.425Z,98836.41
2023-03-29T21:15:30.826Z,98832.56
2023-03-29T21:17:59.159Z,98831.25
2023-03-29T21:20:27.653Z,98829.91
2023-03-29T21:22:55.955Z,98833.94
2023-03-29T21:25:23.866Z,98827.00
2023-03-29T21:27:51.763Z,98828.31
2023-03-29T21:30:19.608Z,98817.38
2023-03-29T21:32:47.516Z,98823.84
2023-03-29T21:35:15.687Z,98811.91
2023-03-29T21:37:43.569Z,98809.69
2023-03-29T21:40:12.675Z,98823.34
2023-03-29T21:42:40.594Z,98811.59
2023-03-29T21:45:09.436Z,98806.84
2023-03-29T21:47:37.643Z,98793.81
2023-03-29T21:50:06.441Z,98800.56
2023-03-29T21:52:34.424Z,98795.13
2023-03-29T21:55:02.583Z,98796.72
2023-03-29T21:57:30.562Z,98785.78
2023-03-29T21:59:58.556Z,98793.38
2023-03-29T22:02:26.509Z,98788.41
2023-03-29T22:04:54.511Z,98783.06
2023-03-29T22:07:26.569Z,98780.53
2023-03-29T22:09:54.761Z,98788.09
2023-03-29T22:12:22.757Z,98784.56
2023-03-29T22:14:50.749Z,98787.59
2023-03-29T22:17:19.312Z,98800.31
2023-03-29T22:19:47.578Z,98796.97
2023-03-29T22:22:16.289Z,98805.97
2023-03-29T22:24:44.273Z,98796.00
2023-03-29T22:27:12.198Z,98795.66
2023-03-29T22:29:40.266Z,98788.59
2023-03-29T22:32:08.527Z,98798.16
2023-03-29T22:34:36.588Z,98794.22
2023-03-29T22:37:05.005Z,98786.16
2023-03-29T22:39:35.341Z,98774.66
2023-03-29T22:42:03.564Z,98767.78
2023-03-29T22:44:31.593Z,98768.72
2023-03-29T22:46:59.831Z,98772.44
2023-03-29T22:49:27.766Z,98763.03
2023-03-29T22:51:55.820Z,98764.47
2023-03-29T22:54:23.732Z,98767.50
2023-03-29T22:56:51.764Z,98785.72
2023-03-29T22:59:20.812Z,98765.47
2023-03-29T23:01:49.882Z,98766.19
2023-03-29T23:04:18.076Z,98764.47
2023-03-29T23:06:46.278Z,98759.81
2023-03-29T23:09:16.405Z,98753.97
2023-03-29T23:11:44.774Z,98753.03
2023-03-29T23:14:12.663Z,98758.00
2023-03-29T23:16:40.526Z,98747.91
2023-03-29T23:19:08.591Z,98754.19
2023-03-29T23:21:37.193Z,98762.16
2023-03-29T23:24:06.513Z,98763.78
2023-03-29T23:26:35.842Z,98766.50
2023-03-29T23:29:04.499Z,98769.91
2023-03-29T23:31:33.743Z,98767.19
2023-03-29T23:34:03.184Z,98764.47
2023-03-29T23:36:31.547Z,98760.44
2023-03-29T23:38:59.644Z,98767.31
2023-03-29T23:41:28.324Z,98763.28
2023-03-29T23:43:57.769Z,98760.22
2023-03-29T23:46:26.121Z,98762.78
2023-03-29T23:48:54.138Z,98754.28
2023-03-29T23:51:28.973Z,98746.00
2023-03-29T23:53:57.131Z,98744.19
2023-03-29T23:56:25.098Z,98744.69
2023-03-29T23:58:53.444Z,98743.88
